Time,TemperatureF,DewpointF,PressureIn,WindDirection,WindDirectionDegrees,WindSpeedMPH,WindSpeedGustMPH,Humidity,HourlyPrecipIn,Conditions,Clouds,dailyrainin,SoftwareType,DateUTC
2013-09-26 00:03:00,54.1,28.0,27.19,WSW,247,0.0,0.0,36,0.00,,,0.00,Rainwise IP-100,2013-09-26 07:03:00,
2013-09-26 00:08:00,53.9,28.0,27.18,WSW,247,0.0,0.0,36,0.00,,,0.00,Rainwise IP-100,2013-09-26 07:08:00,
2013-09-26 00:13:00,53.4,28.0,27.18,WSW,247,0.0,0.0,37,0.00,,,0.00,Rainwise IP-100,2013-09-26 07:13:00,
2013-09-26 00:18:00,53.2,28.0,27.18,WSW,247,0.0,0.0,37,0.00,,,0.00,Rainwise IP-100,2013-09-26 07:18:00,
2013-09-26 00:23:00,52.8,28.0,27.18,WSW,247,0.0,0.0,38,0.00,,,0.00,Rainwise IP-100,2013-09-26 07:23:00,
2013-09-26 00:28:00,52.6,28.0,27.18,WSW,247,0.0,0.0,38,0.00,,,0.00,Rainwise IP-100,2013-09-26 07:28:00,
2013-09-26 00:33:00,52.5,28.0,27.18,WSW,247,0.0,0.0,38,0.00,,,0.00,Rainwise IP-100,2013-09-26 07:33:00,
2013-09-26 00:38:00,52.1,28.0,27.19,WSW,247,0.0,0.0,38,0.00,,,0.00,Rainwise IP-100,2013-09-26 07:38:00,
2013-09-26 00:43:00,52.0,28.0,27.19,WSW,247,0.0,0.0,38,0.00,,,0.00,Rainwise IP-100,2013-09-26 07:43:00,
2013-09-26 00:48:00,51.8,28.0,27.18,WSW,247,0.0,0.0,38,0.00,,,0.00,Rainwise IP-100,2013-09-26 07:48:00,
2013-09-26 00:53:00,51.8,28.0,27.18,WSW,247,0.0,0.0,38,0.00,,,0.00,Rainwise IP-100,2013-09-26 07:53:00,
2013-09-26 00:58:00,51.8,28.0,27.18,WSW,247,0.0,0.0,38,0.00,,,0.00,Rainwise IP-100,2013-09-26 07:58:00,
2013-09-26 01:43:00,51.8,28.0,27.18,WSW,247,0.0,0.0,38,0.00,,,0.00,Rainwise IP-100,2013-09-26 08:43:00,
2013-09-26 01:48:00,53.4,28.0,27.18,WSW,247,0.0,0.0,37,0.00,,,0.00,Rainwise IP-100,2013-09-26 08:48:00,
2013-09-26 02:55:00,50.9,29.0,27.17,WSW,247,0.0,0.0,43,0.00,,,0.00,Rainwise IP-100,2013-09-26 09:55:00,
2013-09-26 03:00:00,50.9,29.0,27.16,WSW,247,0.0,0.0,42,0.00,,,0.00,Rainwise IP-100,2013-09-26 10:00:00,
2013-09-26 03:05:00,51.0,29.0,27.16,WSW,247,0.0,0.0,43,0.00,,,0.00,Rainwise IP-100,2013-09-26 10:05:00,
2013-09-26 03:10:00,50.9,29.0,27.16,WSW,247,0.0,0.0,43,0.00,,,0.00,Rainwise IP-100,2013-09-26 10:10:00,
2013-09-26 03:15:00,50.9,29.0,27.16,WSW,247,0.0,0.0,43,0.00,,,0.00,Rainwise IP-100,2013-09-26 10:15:00,
2013-09-26 03:16:00,50.8,29.0,27.16,WSW,247,0.0,0.0,43,0.00,,,0.00,Rainwise IP-100,2013-09-26 10:16:00,
2013-09-26 03:21:00,50.7,29.0,27.16,WSW,247,0.0,0.0,44,0.00,,,0.00,Rainwise IP-100,2013-09-26 10:21:00,
2013-09-26 03:26:00,50.5,29.0,27.16,WSW,247,0.0,0.0,44,0.00,,,0.00,Rainwise IP-100,2013-09-26 10:26:00,
2013-09-26 03:31:00,50.2,29.0,27.16,WSW,247,0.0,0.0,45,0.00,,,0.00,Rainwise IP-100,2013-09-26 10:31:00,
2013-09-26 03:36:00,50.0,29.0,27.16,WSW,247,0.0,0.0,45,0.00,,,0.00,Rainwise IP-100,2013-09-26 10:36:00,
2013-09-26 03:41:00,50.1,31.0,27.16,WSW,247,0.0,0.0,46,0.00,,,0.00,Rainwise IP-100,2013-09-26 10:41:00,
2013-09-26 03:46:00,50.3,31.0,27.16,WSW,247,0.0,0.0,46,0.00,,,0.00,Rainwise IP-100,2013-09-26 10:46:00,
2013-09-26 03:51:00,50.4,31.0,27.16,WSW,247,0.0,0.0,46,0.00,,,0.00,Rainwise IP-100,2013-09-26 10:51:00,
2013-09-26 03:56:00,50.4,31.0,27.16,WSW,247,0.0,0.0,46,0.00,,,0.00,Rainwise IP-100,2013-09-26 10:56:00,
2013-09-26 04:01:00,50.3,31.0,27.16,WSW,247,0.0,0.0,46,0.00,,,0.00,Rainwise IP-100,2013-09-26 11:01:00,
2013-09-26 04:06:00,50.2,31.0,27.16,WSW,247,0.0,0.0,47,0.00,,,0.00,Rainwise IP-100,2013-09-26 11:06:00,
2013-09-26 04:11:00,50.1,31.0,27.16,WSW,247,0.0,0.0,47,0.00,,,0.00,Rainwise IP-100,2013-09-26 11:11:00,
2013-09-26 04:16:00,50.1,31.0,27.16,WSW,247,0.0,0.0,47,0.00,,,0.00,Rainwise IP-100,2013-09-26 11:16:00,
2013-09-26 04:33:00,49.7,31.0,27.16,WSW,247,0.0,0.0,48,0.00,,,0.00,Rainwise IP-100,2013-09-26 11:33:00,
2013-09-26 04:38:00,49.6,32.0,27.16,WSW,247,0.0,0.0,49,0.00,,,0.00,Rainwise IP-100,2013-09-26 11:38:00,
2013-09-26 04:43:00,49.4,31.0,27.16,WSW,247,0.0,0.0,49,0.00,,,0.00,Rainwise IP-100,2013-09-26 11:43:00,
2013-09-26 04:48:00,49.3,32.0,27.16,WSW,247,0.0,0.0,50,0.00,,,0.00,Rainwise IP-100,2013-09-26 11:48:00,
2013-09-26 04:53:00,49.2,32.0,27.16,WSW,247,0.0,0.0,50,0.00,,,0.00,Rainwise IP-100,2013-09-26 11:53:00,
2013-09-26 04:58:00,49.2,32.0,27.16,WSW,247,0.0,0.0,50,0.00,,,0.00,Rainwise IP-100,2013-09-26 11:58:00,
2013-09-26 05:03:00,48.9,32.0,27.16,WSW,247,0.0,0.0,50,0.00,,,0.00,Rainwise IP-100,2013-09-26 12:03:00,
2013-09-26 05:08:00,48.9,32.0,27.16,WSW,247,0.0,0.0,50,0.00,,,0.00,Rainwise IP-100,2013-09-26 12:08:00,
2013-09-26 05:13:00,48.8,32.0,27.16,WSW,247,0.0,0.0,51,0.00,,,0.00,Rainwise IP-100,2013-09-26 12:13:00,
2013-09-26 05:18:00,48.4,32.0,27.16,WSW,247,0.0,0.0,52,0.00,,,0.00,Rainwise IP-100,2013-09-26 12:18:00,
2013-09-26 05:23:00,48.7,32.0,27.16,WSW,247,0.0,0.0,52,0.00,,,0.00,Rainwise IP-100,2013-09-26 12:23:00,
2013-09-26 05:28:00,49.1,32.0,27.16,WSW,247,0.0,0.0,52,0.00,,,0.00,Rainwise IP-100,2013-09-26 12:28:00,
2013-09-26 05:33:00,49.0,32.0,27.16,WSW,247,0.0,0.0,52,0.00,,,0.00,Rainwise IP-100,2013-09-26 12:33:00,
2013-09-26 05:38:00,49.0,32.0,27.16,WSW,247,0.0,0.0,52,0.00,,,0.00,Rainwise IP-100,2013-09-26 12:38:00,
2013-09-26 05:48:00,48.8,33.0,27.17,WSW,247,0.0,0.0,54,0.00,,,0.00,Rainwise IP-100,2013-09-26 12:48:00,
2013-09-26 05:53:00,48.7,33.0,27.17,WSW,247,0.0,0.0,54,0.00,,,0.00,Rainwise IP-100,2013-09-26 12:53:00,
2013-09-26 05:58:00,48.7,33.0,27.17,WSW,247,0.0,0.0,54,0.00,,,0.00,Rainwise IP-100,2013-09-26 12:58:00,
2013-09-26 06:03:00,48.6,33.0,27.17,WSW,247,0.0,0.0,54,0.00,,,0.00,Rainwise IP-100,2013-09-26 13:03:00,
2013-09-26 06:08:00,48.6,33.0,27.17,WSW,247,0.0,0.0,54,0.00,,,0.00,Rainwise IP-100,2013-09-26 13:08:00,
2013-09-26 06:13:00,48.5,33.0,27.17,WSW,247,0.0,0.0,55,0.00,,,0.00,Rainwise IP-100,2013-09-26 13:13:00,
2013-09-26 06:18:00,48.5,33.0,27.17,WSW,247,0.0,0.0,55,0.00,,,0.00,Rainwise IP-100,2013-09-26 13:18:00,
2013-09-26 06:23:00,48.5,33.0,27.17,WSW,247,0.0,0.0,55,0.00,,,0.00,Rainwise IP-100,2013-09-26 13:23:00,
2013-09-26 08:03:00,71.7,42.0,27.18,South,180,0.0,0.0,35,0.00,,,0.00,Rainwise IP-100,2013-09-26 15:03:00,
2013-09-26 08:08:00,73.7,43.0,27.18,South,180,0.0,0.0,33,0.00,,,0.00,Rainwise IP-100,2013-09-26 15:08:00,
2013-09-26 08:13:00,74.8,43.0,27.18,South,180,0.0,0.0,32,0.00,,,0.00,Rainwise IP-100,2013-09-26 15:13:00,
2013-09-26 08:18:00,75.9,43.0,27.18,South,180,0.0,0.0,31,0.00,,,0.00,Rainwise IP-100,2013-09-26 15:18:00,
2013-09-26 08:23:00,77.5,42.0,27.18,West,270,2.1,6.0,28,0.00,,,0.00,Rainwise IP-100,2013-09-26 15:23:00,
2013-09-26 08:28:00,78.9,39.0,27.18,NNW,337,1.6,6.0,24,0.00,,,0.00,Rainwise IP-100,2013-09-26 15:28:00,
2013-09-26 08:33:00,79.8,36.0,27.18,West,270,3.3,5.0,21,0.00,,,0.00,Rainwise IP-100,2013-09-26 15:33:00,
2013-09-26 08:38:00,80.3,36.0,27.18,West,270,3.0,4.0,20,0.00,,,0.00,Rainwise IP-100,2013-09-26 15:38:00,
2013-09-26 08:43:00,80.9,36.0,27.18,WNW,292,1.6,7.0,20,0.00,,,0.00,Rainwise IP-100,2013-09-26 15:43:00,
2013-09-26 08:48:00,81.4,36.0,27.18,WNW,292,1.6,5.0,19,0.00,,,0.00,Rainwise IP-100,2013-09-26 15:48:00,
2013-09-26 08:53:00,81.6,36.0,27.18,WNW,292,1.2,3.0,19,0.00,,,0.00,Rainwise IP-100,2013-09-26 15:53:00,
2013-09-26 08:58:00,82.3,36.0,27.18,WNW,292,2.6,4.0,19,0.00,,,0.00,Rainwise IP-100,2013-09-26 15:58:00,
2013-09-26 09:03:00,82.5,35.0,27.18,WNW,292,3.5,5.0,18,0.00,,,0.00,Rainwise IP-100,2013-09-26 16:03:00,
2013-09-26 09:08:00,82.6,35.0,27.18,WNW,292,1.6,7.0,18,0.00,,,0.00,Rainwise IP-100,2013-09-26 16:08:00,
2013-09-26 09:13:00,82.9,36.0,27.18,WSW,247,3.3,4.0,18,0.00,,,0.00,Rainwise IP-100,2013-09-26 16:13:00,
2013-09-26 09:18:00,83.3,36.0,27.18,WNW,292,0.0,5.0,18,0.00,,,0.00,Rainwise IP-100,2013-09-26 16:18:00,
2013-09-26 09:23:00,83.5,36.0,27.18,WSW,247,1.6,4.0,18,0.00,,,0.00,Rainwise IP-100,2013-09-26 16:23:00,
2013-09-26 09:28:00,84.0,36.0,27.18,WNW,292,4.9,4.9,18,0.00,,,0.00,Rainwise IP-100,2013-09-26 16:28:00,
2013-09-26 09:33:00,84.3,36.0,27.18,WNW,292,0.0,5.0,18,0.00,,,0.00,Rainwise IP-100,2013-09-26 16:33:00,
2013-09-26 09:38:00,84.6,35.0,27.18,WNW,292,4.9,5.0,17,0.00,,,0.00,Rainwise IP-100,2013-09-26 16:38:00,
2013-09-26 09:43:00,85.0,37.0,27.18,West,270,1.2,5.0,18,0.00,,,0.00,Rainwise IP-100,2013-09-26 16:43:00,
2013-09-26 09:48:00,85.3,36.0,27.18,South,180,2.3,3.0,17,0.00,,,0.00,Rainwise IP-100,2013-09-26 16:48:00,
2013-09-26 09:53:00,85.8,37.0,27.18,WSW,247,2.1,3.0,18,0.00,,,0.00,Rainwise IP-100,2013-09-26 16:53:00,
2013-09-26 09:58:00,86.4,38.0,27.18,WSW,247,2.1,5.0,18,0.00,,,0.00,Rainwise IP-100,2013-09-26 16:58:00,
2013-09-26 10:03:00,86.6,37.0,27.17,WNW,292,4.4,4.4,17,0.00,,,0.00,Rainwise IP-100,2013-09-26 17:03:00,
2013-09-26 10:08:00,86.6,37.0,27.18,SSE,157,0.0,6.0,17,0.00,,,0.00,Rainwise IP-100,2013-09-26 17:08:00,
2013-09-26 10:13:00,87.0,37.0,27.18,West,270,0.0,6.0,17,0.00,,,0.00,Rainwise IP-100,2013-09-26 17:13:00,
2013-09-26 10:18:00,87.5,37.0,27.17,SW,225,1.6,3.0,17,0.00,,,0.00,Rainwise IP-100,2013-09-26 17:18:00,
2013-09-26 10:23:00,87.7,38.0,27.18,WSW,247,3.3,5.0,17,0.00,,,0.00,Rainwise IP-100,2013-09-26 17:23:00,
2013-09-26 10:28:00,88.0,38.0,27.17,SSW,202,2.1,6.0,17,0.00,,,0.00,Rainwise IP-100,2013-09-26 17:28:00,
2013-09-26 10:33:00,88.2,38.0,27.17,SSW,202,3.3,9.0,17,0.00,,,0.00,Rainwise IP-100,2013-09-26 17:33:00,
2013-09-26 10:38:00,88.2,38.0,27.17,SSE,157,3.7,8.0,17,0.00,,,0.00,Rainwise IP-100,2013-09-26 17:38:00,
2013-09-26 10:43:00,88.4,38.0,27.17,SSW,202,1.9,9.0,17,0.00,,,0.00,Rainwise IP-100,2013-09-26 17:43:00,
2013-09-26 10:48:00,88.6,38.0,27.17,SSW,202,2.8,8.0,17,0.00,,,0.00,Rainwise IP-100,2013-09-26 17:48:00,
2013-09-26 10:53:00,88.6,38.0,27.17,SW,225,2.3,8.0,17,0.00,,,0.00,Rainwise IP-100,2013-09-26 17:53:00,
2013-09-26 10:58:00,88.6,38.0,27.16,SW,225,2.1,9.0,17,0.00,,,0.00,Rainwise IP-100,2013-09-26 17:58:00,
2013-09-26 11:00:00,88.7,38.0,27.17,WSW,247,2.3,9.0,17,0.00,,,0.00,Rainwise IP-100,2013-09-26 18:00:00,
2013-09-26 11:05:00,88.9,38.0,27.16,South,180,2.8,9.0,17,0.00,,,0.00,Rainwise IP-100,2013-09-26 18:05:00,
2013-09-26 11:10:00,88.9,38.0,27.17,South,180,4.4,12.0,17,0.00,,,0.00,Rainwise IP-100,2013-09-26 18:10:00,
2013-09-26 11:15:00,88.9,40.0,27.16,South,180,5.1,7.0,18,0.00,,,0.00,Rainwise IP-100,2013-09-26 18:15:00,
2013-09-26 11:20:00,89.1,38.0,27.16,SW,225,2.8,7.0,17,0.00,,,0.00,Rainwise IP-100,2013-09-26 18:20:00,
2013-09-26 11:25:00,89.1,38.0,27.16,South,180,3.3,6.0,17,0.00,,,0.00,Rainwise IP-100,2013-09-26 18:25:00,
2013-09-26 11:30:00,89.0,38.0,27.16,SSW,202,3.0,5.0,17,0.00,,,0.00,Rainwise IP-100,2013-09-26 18:30:00,
2013-09-26 11:35:00,89.3,40.0,27.16,SSW,202,4.9,7.0,18,0.00,,,0.00,Rainwise IP-100,2013-09-26 18:35:00,
2013-09-26 11:40:00,89.6,39.0,27.16,SSW,202,3.5,6.0,17,0.00,,,0.00,Rainwise IP-100,2013-09-26 18:40:00,
2013-09-26 11:45:00,89.8,39.0,27.15,SSW,202,2.8,7.0,17,0.00,,,0.00,Rainwise IP-100,2013-09-26 18:45:00,
2013-09-26 11:50:00,89.9,39.0,27.15,SSE,157,5.4,7.0,17,0.00,,,0.00,Rainwise IP-100,2013-09-26 18:50:00,
2013-09-26 11:55:00,90.0,39.0,27.15,South,180,4.4,8.0,17,0.00,,,0.00,Rainwise IP-100,2013-09-26 18:55:00,
2013-09-26 12:00:00,90.3,39.0,27.15,SSW,202,2.8,9.0,17,0.00,,,0.00,Rainwise IP-100,2013-09-26 19:00:00,
2013-09-26 12:05:00,90.6,40.0,27.14,SSW,202,3.0,8.0,17,0.00,,,0.00,Rainwise IP-100,2013-09-26 19:05:00,
2013-09-26 12:10:00,90.9,40.0,27.14,SSW,202,3.3,9.0,17,0.00,,,0.00,Rainwise IP-100,2013-09-26 19:10:00,
2013-09-26 12:15:00,91.1,40.0,27.14,SSW,202,1.2,5.0,17,0.00,,,0.00,Rainwise IP-100,2013-09-26 19:15:00,
2013-09-26 12:20:00,91.4,40.0,27.14,SW,225,3.5,7.0,17,0.00,,,0.00,Rainwise IP-100,2013-09-26 19:20:00,
2013-09-26 12:25:00,91.4,40.0,27.14,WSW,247,0.0,6.0,17,0.00,,,0.00,Rainwise IP-100,2013-09-26 19:25:00,
2013-09-26 12:30:00,91.3,40.0,27.14,SSE,157,3.0,7.0,17,0.00,,,0.00,Rainwise IP-100,2013-09-26 19:30:00,
2013-09-26 12:35:00,91.2,40.0,27.13,WNW,292,9.1,9.1,17,0.00,,,0.00,Rainwise IP-100,2013-09-26 19:35:00,
2013-09-26 12:40:00,90.8,38.0,27.14,WSW,247,4.7,10.0,16,0.00,,,0.00,Rainwise IP-100,2013-09-26 19:40:00,
2013-09-26 12:45:00,90.4,39.0,27.12,SSW,202,1.4,14.0,17,0.00,,,0.00,Rainwise IP-100,2013-09-26 19:45:00,
2013-09-26 12:50:00,90.7,40.0,27.13,WSW,247,1.9,14.0,17,0.00,,,0.00,Rainwise IP-100,2013-09-26 19:50:00,
2013-09-26 12:55:00,91.3,39.0,27.12,WSW,247,5.1,6.0,16,0.00,,,0.00,Rainwise IP-100,2013-09-26 19:55:00,
2013-09-26 13:00:00,91.8,39.0,27.12,SW,225,4.7,5.0,16,0.00,,,0.00,Rainwise IP-100,2013-09-26 20:00:00,
2013-09-26 13:05:00,92.1,39.0,27.12,SSW,202,2.3,7.0,16,0.00,,,0.00,Rainwise IP-100,2013-09-26 20:05:00,
2013-09-26 13:10:00,92.1,39.0,27.12,WSW,247,3.3,7.0,16,0.00,,,0.00,Rainwise IP-100,2013-09-26 20:10:00,
2013-09-26 13:15:00,91.7,39.0,27.12,SSW,202,3.0,13.0,16,0.00,,,0.00,Rainwise IP-100,2013-09-26 20:15:00,
2013-09-26 13:20:00,91.6,39.0,27.11,WSW,247,1.9,9.0,16,0.00,,,0.00,Rainwise IP-100,2013-09-26 20:20:00,
2013-09-26 13:25:00,92.0,39.0,27.11,SSW,202,0.0,14.0,16,0.00,,,0.00,Rainwise IP-100,2013-09-26 20:25:00,
2013-09-26 13:30:00,92.6,40.0,27.11,SSW,202,1.4,11.0,16,0.00,,,0.00,Rainwise IP-100,2013-09-26 20:30:00,
2013-09-26 13:35:00,92.8,40.0,27.11,SSW,202,4.4,8.0,16,0.00,,,0.00,Rainwise IP-100,2013-09-26 20:35:00,
2013-09-26 13:40:00,92.5,41.0,27.10,WSW,247,3.7,9.0,17,0.00,,,0.00,Rainwise IP-100,2013-09-26 20:40:00,
2013-09-26 13:45:00,92.5,41.0,27.10,South,180,3.7,14.0,17,0.00,,,0.00,Rainwise IP-100,2013-09-26 20:45:00,
2013-09-26 13:50:00,92.9,42.0,27.11,WNW,292,1.9,8.0,17,0.00,,,0.00,Rainwise IP-100,2013-09-26 20:50:00,
2013-09-26 13:55:00,93.0,42.0,27.10,SSW,202,1.9,9.0,17,0.00,,,0.00,Rainwise IP-100,2013-09-26 20:55:00,
2013-09-26 14:00:00,92.9,42.0,27.11,South,180,5.4,15.0,17,0.00,,,0.00,Rainwise IP-100,2013-09-26 21:00:00,
2013-09-26 14:05:00,92.6,41.0,27.10,SSE,157,5.1,13.0,17,0.00,,,0.00,Rainwise IP-100,2013-09-26 21:05:00,
2013-09-26 14:10:00,92.7,41.0,27.11,SSE,157,2.3,9.0,17,0.00,,,0.00,Rainwise IP-100,2013-09-26 21:10:00,
2013-09-26 14:15:00,92.5,41.0,27.10,SSW,202,2.8,10.0,17,0.00,,,0.00,Rainwise IP-100,2013-09-26 21:15:00,
2013-09-26 14:20:00,92.5,41.0,27.10,SSW,202,8.2,8.2,17,0.00,,,0.00,Rainwise IP-100,2013-09-26 21:20:00,
2013-09-26 14:25:00,93.0,42.0,27.10,South,180,3.7,11.0,17,0.00,,,0.00,Rainwise IP-100,2013-09-26 21:25:00,
2013-09-26 14:30:00,93.2,40.0,27.10,WSW,247,2.1,7.0,16,0.00,,,0.00,Rainwise IP-100,2013-09-26 21:30:00,
2013-09-26 14:35:00,93.2,40.0,27.10,SSW,202,4.2,5.0,16,0.00,,,0.00,Rainwise IP-100,2013-09-26 21:35:00,
2013-09-26 14:40:00,93.0,40.0,27.10,SSW,202,4.4,11.0,16,0.00,,,0.00,Rainwise IP-100,2013-09-26 21:40:00,
2013-09-26 14:45:00,93.1,40.0,27.10,SSW,202,1.4,7.0,16,0.00,,,0.00,Rainwise IP-100,2013-09-26 21:45:00,
2013-09-26 14:50:00,93.3,40.0,27.10,SW,225,1.2,10.0,16,0.00,,,0.00,Rainwise IP-100,2013-09-26 21:50:00,
2013-09-26 14:55:00,93.3,40.0,27.10,SW,225,2.8,5.0,16,0.00,,,0.00,Rainwise IP-100,2013-09-26 21:55:00,
2013-09-26 15:00:00,93.1,40.0,27.09,WSW,247,3.3,7.0,16,0.00,,,0.00,Rainwise IP-100,2013-09-26 22:00:00,
2013-09-26 15:05:00,93.2,40.0,27.09,West,270,0.0,6.0,16,0.00,,,0.00,Rainwise IP-100,2013-09-26 22:05:00,
2013-09-26 15:10:00,93.7,41.0,27.09,SSE,157,3.7,6.0,16,0.00,,,0.00,Rainwise IP-100,2013-09-26 22:10:00,
2013-09-26 15:15:00,93.8,41.0,27.09,SSE,157,3.7,10.0,16,0.00,,,0.00,Rainwise IP-100,2013-09-26 22:15:00,
2013-09-26 15:20:00,93.6,40.0,27.09,SSW,202,1.4,7.0,16,0.00,,,0.00,Rainwise IP-100,2013-09-26 22:20:00,
2013-09-26 15:25:00,93.8,41.0,27.08,WSW,247,2.6,6.0,16,0.00,,,0.00,Rainwise IP-100,2013-09-26 22:25:00,
2013-09-26 15:30:00,93.5,40.0,27.08,SSW,202,3.5,11.0,16,0.00,,,0.00,Rainwise IP-100,2013-09-26 22:30:00,
2013-09-26 15:35:00,93.2,40.0,27.08,SSW,202,0.0,7.0,16,0.00,,,0.00,Rainwise IP-100,2013-09-26 22:35:00,
2013-09-26 15:40:00,93.6,40.0,27.08,WSW,247,3.3,6.0,16,0.00,,,0.00,Rainwise IP-100,2013-09-26 22:40:00,
2013-09-26 15:45:00,93.2,40.0,27.08,WSW,247,4.4,7.0,16,0.00,,,0.00,Rainwise IP-100,2013-09-26 22:45:00,
2013-09-26 15:50:00,92.5,40.0,27.08,WSW,247,3.0,7.0,16,0.00,,,0.00,Rainwise IP-100,2013-09-26 22:50:00,
2013-09-26 15:55:00,92.5,40.0,27.08,SW,225,4.9,7.0,16,0.00,,,0.00,Rainwise IP-100,2013-09-26 22:55:00,
2013-09-26 16:00:00,92.7,40.0,27.08,SW,225,2.8,8.0,16,0.00,,,0.00,Rainwise IP-100,2013-09-26 23:00:00,
2013-09-26 16:05:00,92.7,40.0,27.08,WSW,247,3.0,7.0,16,0.00,,,0.00,Rainwise IP-100,2013-09-26 23:05:00,
2013-09-26 16:10:00,92.4,39.0,27.08,WSW,247,3.3,7.0,16,0.00,,,0.00,Rainwise IP-100,2013-09-26 23:10:00,
2013-09-26 16:15:00,92.0,39.0,27.07,SSW,202,3.3,8.0,16,0.00,,,0.00,Rainwise IP-100,2013-09-26 23:15:00,
2013-09-26 16:20:00,91.9,39.0,27.07,SSW,202,2.1,5.0,16,0.00,,,0.00,Rainwise IP-100,2013-09-26 23:20:00,
2013-09-26 16:25:00,92.4,39.0,27.07,SW,225,2.1,7.0,16,0.00,,,0.00,Rainwise IP-100,2013-09-26 23:25:00,
2013-09-26 16:30:00,92.5,40.0,27.07,SSW,202,3.3,10.0,16,0.00,,,0.00,Rainwise IP-100,2013-09-26 23:30:00,
2013-09-26 16:35:00,92.1,39.0,27.07,SW,225,0.0,8.0,16,0.00,,,0.00,Rainwise IP-100,2013-09-26 23:35:00,
2013-09-26 16:40:00,91.6,39.0,27.07,South,180,2.8,9.0,16,0.00,,,0.00,Rainwise IP-100,2013-09-26 23:40:00,
2013-09-26 16:45:00,91.2,39.0,27.07,South,180,4.4,13.0,16,0.00,,,0.00,Rainwise IP-100,2013-09-26 23:45:00,
2013-09-26 16:50:00,91.0,39.0,27.07,WSW,247,1.9,7.0,16,0.00,,,0.00,Rainwise IP-100,2013-09-26 23:50:00,
2013-09-26 16:55:00,91.0,39.0,27.08,South,180,4.4,6.0,16,0.00,,,0.00,Rainwise IP-100,2013-09-26 23:55:00,
2013-09-26 17:00:00,91.1,39.0,27.08,SSW,202,1.9,9.0,16,0.00,,,0.00,Rainwise IP-100,2013-09-27 00:00:00,
2013-09-26 17:05:00,90.8,38.0,27.08,WSW,247,3.0,9.0,16,0.00,,,0.00,Rainwise IP-100,2013-09-27 00:05:00,
2013-09-26 17:10:00,90.4,38.0,27.07,WSW,247,1.6,7.0,16,0.00,,,0.00,Rainwise IP-100,2013-09-27 00:10:00,
2013-09-26 17:15:00,90.2,38.0,27.07,SSW,202,1.2,4.0,16,0.00,,,0.00,Rainwise IP-100,2013-09-27 00:15:00,
2013-09-26 17:20:00,90.0,39.0,27.07,SSW,202,2.6,6.0,17,0.00,,,0.00,Rainwise IP-100,2013-09-27 00:20:00,
2013-09-26 17:25:00,89.6,39.0,27.07,SW,225,1.4,7.0,17,0.00,,,0.00,Rainwise IP-100,2013-09-27 00:25:00,
2013-09-26 17:30:00,89.2,39.0,27.07,South,180,3.3,8.0,17,0.00,,,0.00,Rainwise IP-100,2013-09-27 00:30:00,
2013-09-26 17:35:00,88.8,40.0,27.07,SSW,202,3.7,8.0,18,0.00,,,0.00,Rainwise IP-100,2013-09-27 00:35:00,
2013-09-26 17:40:00,88.2,39.0,27.08,SSW,202,1.4,13.0,18,0.00,,,0.00,Rainwise IP-100,2013-09-27 00:40:00,
2013-09-26 17:45:00,87.7,40.0,27.08,SSW,202,2.3,11.0,19,0.00,,,0.00,Rainwise IP-100,2013-09-27 00:45:00,
2013-09-26 17:50:00,87.3,40.0,27.08,SSW,202,1.2,8.0,19,0.00,,,0.00,Rainwise IP-100,2013-09-27 00:50:00,
2013-09-26 17:55:00,86.9,41.0,27.08,SW,225,2.1,6.0,20,0.00,,,0.00,Rainwise IP-100,2013-09-27 00:55:00,
2013-09-26 18:00:00,86.5,40.0,27.08,South,180,2.3,6.0,20,0.00,,,0.00,Rainwise IP-100,2013-09-27 01:00:00,
2013-09-26 18:05:00,86.1,41.0,27.08,SSW,202,2.6,7.0,21,0.00,,,0.00,Rainwise IP-100,2013-09-27 01:05:00,
2013-09-26 18:10:00,85.8,41.0,27.08,SSW,202,0.0,5.0,21,0.00,,,0.00,Rainwise IP-100,2013-09-27 01:10:00,
2013-09-26 18:15:00,85.6,41.0,27.08,SSW,202,2.6,4.0,21,0.00,,,0.00,Rainwise IP-100,2013-09-27 01:15:00,
2013-09-26 18:20:00,85.4,42.0,27.08,SSW,202,0.0,5.0,22,0.00,,,0.00,Rainwise IP-100,2013-09-27 01:20:00,
2013-09-26 18:25:00,85.3,42.0,27.08,SW,225,1.6,5.0,22,0.00,,,0.00,Rainwise IP-100,2013-09-27 01:25:00,
2013-09-26 18:30:00,85.1,42.0,27.08,South,180,1.2,4.0,22,0.00,,,0.00,Rainwise IP-100,2013-09-27 01:30:00,
2013-09-26 18:35:00,85.0,43.0,27.09,SSW,202,1.9,2.0,23,0.00,,,0.00,Rainwise IP-100,2013-09-27 01:35:00,
2013-09-26 18:40:00,84.7,43.0,27.08,South,180,1.6,3.0,23,0.00,,,0.00,Rainwise IP-100,2013-09-27 01:40:00,
2013-09-26 18:45:00,84.3,42.0,27.08,South,180,2.3,7.0,23,0.00,,,0.00,Rainwise IP-100,2013-09-27 01:45:00,
2013-09-26 18:50:00,84.1,42.0,27.08,South,180,2.3,6.0,23,0.00,,,0.00,Rainwise IP-100,2013-09-27 01:50:00,
2013-09-26 18:55:00,83.8,42.0,27.08,SSW,202,2.6,4.0,23,0.00,,,0.00,Rainwise IP-100,2013-09-27 01:55:00,
2013-09-26 19:00:00,83.5,42.0,27.08,SSW,202,1.6,4.0,23,0.00,,,0.00,Rainwise IP-100,2013-09-27 02:00:00,
2013-09-26 19:05:00,83.3,43.0,27.08,SSW,202,0.0,4.0,24,0.00,,,0.00,Rainwise IP-100,2013-09-27 02:05:00,
2013-09-26 19:10:00,83.0,42.0,27.09,SSW,202,0.0,2.0,24,0.00,,,0.00,Rainwise IP-100,2013-09-27 02:10:00,
2013-09-26 19:15:00,82.7,42.0,27.09,SSW,202,1.9,2.0,24,0.00,,,0.00,Rainwise IP-100,2013-09-27 02:15:00,
2013-09-26 19:20:00,82.5,43.0,27.09,SSW,202,0.0,2.0,25,0.00,,,0.00,Rainwise IP-100,2013-09-27 02:20:00,
2013-09-26 19:25:00,82.4,43.0,27.09,SSW,202,0.0,1.0,25,0.00,,,0.00,Rainwise IP-100,2013-09-27 02:25:00,
2013-09-26 19:30:00,82.3,44.0,27.09,SSW,202,1.4,2.0,26,0.00,,,0.00,Rainwise IP-100,2013-09-27 02:30:00,
2013-09-26 19:35:00,82.4,44.0,27.09,SSW,202,2.8,3.0,26,0.00,,,0.00,Rainwise IP-100,2013-09-27 02:35:00,
2013-09-26 19:40:00,82.6,45.0,27.10,SW,225,4.9,5.0,27,0.00,,,0.00,Rainwise IP-100,2013-09-27 02:40:00,
2013-09-26 19:45:00,82.9,46.0,27.10,SW,225,1.2,4.0,27,0.00,,,0.00,Rainwise IP-100,2013-09-27 02:45:00,
2013-09-26 19:50:00,83.2,46.0,27.10,SW,225,2.3,2.3,27,0.00,,,0.00,Rainwise IP-100,2013-09-27 02:50:00,
2013-09-26 19:55:00,83.2,46.0,27.10,South,180,0.0,4.0,27,0.00,,,0.00,Rainwise IP-100,2013-09-27 02:55:00,
2013-09-26 20:00:00,83.1,47.0,27.10,SSW,202,1.6,4.0,28,0.00,,,0.00,Rainwise IP-100,2013-09-27 03:00:00,
2013-09-26 20:05:00,83.0,47.0,27.11,SSW,202,2.6,4.0,28,0.00,,,0.00,Rainwise IP-100,2013-09-27 03:05:00,
2013-09-26 20:10:00,82.9,47.0,27.11,SW,225,1.6,6.0,29,0.00,,,0.00,Rainwise IP-100,2013-09-27 03:10:00,
2013-09-26 20:15:00,82.9,47.0,27.11,SW,225,2.6,5.0,29,0.00,,,0.00,Rainwise IP-100,2013-09-27 03:15:00,
2013-09-26 20:20:00,82.9,49.0,27.11,SSW,202,5.1,5.1,31,0.00,,,0.00,Rainwise IP-100,2013-09-27 03:20:00,
2013-09-26 20:25:00,82.6,50.0,27.12,SSW,202,4.7,5.0,33,0.00,,,0.00,Rainwise IP-100,2013-09-27 03:25:00,
2013-09-26 20:30:00,82.4,51.0,27.12,WSW,247,1.2,4.0,34,0.00,,,0.00,Rainwise IP-100,2013-09-27 03:30:00,
2013-09-26 20:35:00,82.0,52.0,27.12,WSW,247,2.3,5.0,35,0.00,,,0.00,Rainwise IP-100,2013-09-27 03:35:00,
2013-09-26 20:40:00,81.5,51.0,27.12,WNW,292,0.0,5.0,35,0.00,,,0.00,Rainwise IP-100,2013-09-27 03:40:00,
2013-09-26 20:45:00,81.0,52.0,27.13,West,270,1.4,4.0,36,0.00,,,0.00,Rainwise IP-100,2013-09-27 03:45:00,
2013-09-26 20:50:00,80.7,52.0,27.13,WNW,292,3.7,6.0,37,0.00,,,0.00,Rainwise IP-100,2013-09-27 03:50:00,
2013-09-26 20:56:00,80.2,51.0,27.13,WNW,292,9.3,9.3,37,0.00,,,0.00,Rainwise IP-100,2013-09-27 03:56:00,
2013-09-26 21:01:00,79.8,52.0,27.13,WNW,292,2.6,9.0,38,0.00,,,0.00,Rainwise IP-100,2013-09-27 04:01:00,
2013-09-26 21:06:00,79.6,52.0,27.13,West,270,4.4,8.0,38,0.00,,,0.00,Rainwise IP-100,2013-09-27 04:06:00,
2013-09-26 21:11:00,79.4,51.0,27.14,SSW,202,2.6,6.0,38,0.00,,,0.00,Rainwise IP-100,2013-09-27 04:11:00,
2013-09-26 21:16:00,79.2,51.0,27.14,WNW,292,4.0,8.0,38,0.00,,,0.00,Rainwise IP-100,2013-09-27 04:16:00,
2013-09-26 21:21:00,78.9,51.0,27.14,West,270,3.7,8.0,38,0.00,,,0.00,Rainwise IP-100,2013-09-27 04:21:00,
2013-09-26 21:26:00,78.8,51.0,27.13,West,270,2.8,6.0,38,0.00,,,0.00,Rainwise IP-100,2013-09-27 04:26:00,
2013-09-26 21:31:00,78.6,51.0,27.14,WSW,247,1.6,6.0,38,0.00,,,0.00,Rainwise IP-100,2013-09-27 04:31:00,
2013-09-26 21:36:00,78.2,51.0,27.14,WSW,247,4.7,6.0,39,0.00,,,0.00,Rainwise IP-100,2013-09-27 04:36:00,
2013-09-26 21:41:00,77.8,50.0,27.14,WSW,247,4.7,7.0,39,0.00,,,0.00,Rainwise IP-100,2013-09-27 04:41:00,
2013-09-26 21:46:00,77.5,50.0,27.14,WNW,292,2.6,7.0,39,0.00,,,0.00,Rainwise IP-100,2013-09-27 04:46:00,
2013-09-26 21:51:00,77.2,51.0,27.15,SW,225,1.4,6.0,40,0.00,,,0.00,Rainwise IP-100,2013-09-27 04:51:00,
2013-09-26 21:56:00,77.0,51.0,27.15,WSW,247,1.9,5.0,40,0.00,,,0.00,Rainwise IP-100,2013-09-27 04:56:00,
2013-09-26 22:01:00,76.9,52.0,27.15,WSW,247,2.3,5.0,41,0.00,,,0.00,Rainwise IP-100,2013-09-27 05:01:00,
2013-09-26 22:06:00,76.8,51.0,27.16,WSW,247,1.9,7.0,41,0.00,,,0.00,Rainwise IP-100,2013-09-27 05:06:00,
2013-09-26 22:11:00,76.8,51.0,27.16,WSW,247,1.2,5.0,41,0.00,,,0.00,Rainwise IP-100,2013-09-27 05:11:00,
2013-09-26 22:16:00,76.7,51.0,27.16,WSW,247,4.0,6.0,41,0.00,,,0.00,Rainwise IP-100,2013-09-27 05:16:00,
2013-09-26 22:21:00,76.5,51.0,27.16,WNW,292,3.3,7.0,41,0.00,,,0.00,Rainwise IP-100,2013-09-27 05:21:00,
2013-09-26 22:26:00,76.3,50.0,27.16,SW,225,2.8,5.0,41,0.00,,,0.00,Rainwise IP-100,2013-09-27 05:26:00,
2013-09-26 22:31:00,76.1,50.0,27.16,West,270,1.9,5.0,41,0.00,,,0.00,Rainwise IP-100,2013-09-27 05:31:00,
2013-09-26 22:36:00,75.9,50.0,27.16,WNW,292,0.0,2.0,41,0.00,,,0.00,Rainwise IP-100,2013-09-27 05:36:00,
2013-09-26 22:41:00,75.7,50.0,27.16,West,270,0.0,2.0,42,0.00,,,0.00,Rainwise IP-100,2013-09-27 05:41:00,
2013-09-26 22:46:00,75.3,50.0,27.16,WSW,247,0.0,4.0,42,0.00,,,0.00,Rainwise IP-100,2013-09-27 05:46:00,
2013-09-26 22:51:00,75.1,51.0,27.17,West,270,5.6,5.6,43,0.00,,,0.00,Rainwise IP-100,2013-09-27 05:51:00,
2013-09-26 22:56:00,74.9,51.0,27.17,WNW,292,0.0,6.0,43,0.00,,,0.00,Rainwise IP-100,2013-09-27 05:56:00,
2013-09-26 23:01:00,74.7,51.0,27.16,WSW,247,0.0,3.0,44,0.00,,,0.00,Rainwise IP-100,2013-09-27 06:01:00,
2013-09-26 23:06:00,74.4,51.0,27.17,SSW,202,0.0,2.0,44,0.00,,,0.00,Rainwise IP-100,2013-09-27 06:06:00,
2013-09-26 23:11:00,74.1,51.0,27.17,SSW,202,1.6,1.6,45,0.00,,,0.00,Rainwise IP-100,2013-09-27 06:11:00,
2013-09-26 23:16:00,74.0,51.0,27.17,SSW,202,0.0,1.0,45,0.00,,,0.00,Rainwise IP-100,2013-09-27 06:16:00,
2013-09-26 23:21:00,73.8,52.0,27.17,SW,225,2.1,2.1,46,0.00,,,0.00,Rainwise IP-100,2013-09-27 06:21:00,
2013-09-26 23:26:00,73.8,52.0,27.17,WSW,247,3.5,3.5,47,0.00,,,0.00,Rainwise IP-100,2013-09-27 06:26:00,
2013-09-26 23:31:00,73.9,53.0,27.17,WSW,247,1.2,3.0,48,0.00,,,0.00,Rainwise IP-100,2013-09-27 06:31:00,
2013-09-26 23:36:00,73.9,53.0,27.17,WSW,247,1.6,3.0,48,0.00,,,0.00,Rainwise IP-100,2013-09-27 06:36:00,
2013-09-26 23:41:00,73.9,54.0,27.17,SW,225,3.0,3.0,49,0.00,,,0.00,Rainwise IP-100,2013-09-27 06:41:00,
2013-09-26 23:46:00,73.8,53.0,27.17,SSW,202,1.4,3.0,49,0.00,,,0.00,Rainwise IP-100,2013-09-27 06:46:00,
2013-09-26 23:51:00,73.7,53.0,27.17,SSW,202,0.0,2.0,49,0.00,,,0.00,Rainwise IP-100,2013-09-27 06:51:00,
2013-09-26 23:56:00,73.5,53.0,27.17,SW,225,1.4,1.4,49,0.00,,,0.00,Rainwise IP-100,2013-09-27 06:56:00,